sensor_id;sensor_type;location;lat;lon;timestamp;temperature;humidity
63966;DHT22;50151;52.030;5.350;2023-07-20T06:24:41;15.80;99.90
63966;DHT22;50151;52.030;5.350;2023-07-20T06:27:07;15.90;99.90
63966;DHT22;50151;52.030;5.350;2023-07-20T06:29:34;16.00;99.90
63966;DHT22;50151;52.030;5.350;2023-07-20T06:32:01;16.00;99.90
63966;DHT22;50151;52.030;5.350;2023-07-20T06:34:27;16.10;99.90
63966;DHT22;50151;52.030;5.350;2023-07-20T06:36:55;16.10;99.90
63966;DHT22;50151;52.030;5.350;2023-07-20T06:39:22;16.20;99.90
63966;DHT22;50151;52.030;5.350;2023-07-20T06:41:52;16.30;99.90
63966;DHT22;50151;52.030;5.350;2023-07-20T06:44:21;16.30;99.90
63966;DHT22;50151;52.030;5.350;2023-07-20T06:46:48;16.40;99.90
63966;DHT22;50151;52.030;5.350;2023-07-20T06:49:25;16.50;99.90
63966;DHT22;50151;52.030;5.350;2023-07-20T06:51:52;16.50;99.90
63966;DHT22;50151;52.030;5.350;2023-07-20T06:54:19;16.60;99.90
63966;DHT22;50151;52.030;5.350;2023-07-20T06:56:49;16.60;99.90
63966;DHT22;50151;52.030;5.350;2023-07-20T06:59:36;16.70;99.90
63966;DHT22;50151;52.030;5.350;2023-07-20T07:02:07;16.70;99.90
63966;DHT22;50151;52.030;5.350;2023-07-20T07:04:41;16.80;99.90
63966;DHT22;50151;52.030;5.350;2023-07-20T07:07:08;16.70;99.90
63966;DHT22;50151;52.030;5.350;2023-07-20T07:09:35;16.80;99.90
63966;DHT22;50151;52.030;5.350;2023-07-20T07:12:03;16.90;99.90
63966;DHT22;50151;52.030;5.350;2023-07-20T07:14:30;17.00;99.90
63966;DHT22;50151;52.030;5.350;2023-07-20T07:16:59;17.10;99.90
63966;DHT22;50151;52.030;5.350;2023-07-20T07:19:29;17.00;99.90
63966;DHT22;50151;52.030;5.350;2023-07-20T07:21:56;17.20;99.90
63966;DHT22;50151;52.030;5.350;2023-07-20T07:24:26;17.30;99.90
63966;DHT22;50151;52.030;5.350;2023-07-20T07:26:55;17.50;99.90
63966;DHT22;50151;52.030;5.350;2023-07-20T07:29:22;17.40;99.90
63966;DHT22;50151;52.030;5.350;2023-07-20T07:31:49;17.50;99.90
63966;DHT22;50151;52.030;5.350;2023-07-20T07:34:15;17.80;99.90
63966;DHT22;50151;52.030;5.350;2023-07-20T07:36:43;17.90;99.90
63966;DHT22;50151;52.030;5.350;2023-07-20T07:39:09;17.80;99.90
63966;DHT22;50151;52.030;5.350;2023-07-20T07:41:39;17.90;99.90
63966;DHT22;50151;52.030;5.350;2023-07-20T07:44:06;17.80;99.90
63966;DHT22;50151;52.030;5.350;2023-07-20T07:46:33;17.50;99.90
63966;DHT22;50151;52.030;5.350;2023-07-20T07:49:00;17.50;99.90
63966;DHT22;50151;52.030;5.350;2023-07-20T07:51:26;17.50;99.90
63966;DHT22;50151;52.030;5.350;2023-07-20T07:53:56;17.50;99.90
63966;DHT22;50151;52.030;5.350;2023-07-20T07:56:22;17.50;99.90
63966;DHT22;50151;52.030;5.350;2023-07-20T07:58:51;17.50;99.90
63966;DHT22;50151;52.030;5.350;2023-07-20T08:01:18;17.80;99.90
63966;DHT22;50151;52.030;5.350;2023-07-20T08:03:45;18.10;99.90
63966;DHT22;50151;52.030;5.350;2023-07-20T08:06:14;18.10;99.90
63966;DHT22;50151;52.030;5.350;2023-07-20T08:08:41;18.20;99.90
63966;DHT22;50151;52.030;5.350;2023-07-20T08:11:08;18.30;99.90
63966;DHT22;50151;52.030;5.350;2023-07-20T08:13:36;18.40;99.90
63966;DHT22;50151;52.030;5.350;2023-07-20T08:16:06;18.40;99.90
63966;DHT22;50151;52.030;5.350;2023-07-20T08:18:32;18.30;99.90
63966;DHT22;50151;52.030;5.350;2023-07-20T08:20:59;18.50;99.90
63966;DHT22;50151;52.030;5.350;2023-07-20T08:23:26;18.50;99.90
63966;DHT22;50151;52.030;5.350;2023-07-20T08:25:54;18.60;99.90
63966;DHT22;50151;52.030;5.350;2023-07-20T08:28:20;18.60;99.90
63966;DHT22;50151;52.030;5.350;2023-07-20T08:30:51;18.70;99.90
63966;DHT22;50151;52.030;5.350;2023-07-20T08:33:18;18.50;99.90
63966;DHT22;50151;52.030;5.350;2023-07-20T08:35:49;18.20;99.90
63966;DHT22;50151;52.030;5.350;2023-07-20T08:38:16;18.10;99.90
63966;DHT22;50151;52.030;5.350;2023-07-20T08:40:45;18.10;99.90
63966;DHT22;50151;52.030;5.350;2023-07-20T08:43:12;18.20;99.90
63966;DHT22;50151;52.030;5.350;2023-07-20T08:45:40;18.60;99.90
63966;DHT22;50151;52.030;5.350;2023-07-20T08:48:08;18.80;99.90
63966;DHT22;50151;52.030;5.350;2023-07-20T08:50:35;19.10;99.90
63966;DHT22;50151;52.030;5.350;2023-07-20T08:53:02;19.20;99.90
63966;DHT22;50151;52.030;5.350;2023-07-20T08:55:30;19.30;99.90
63966;DHT22;50151;52.030;5.350;2023-07-20T08:57:59;19.10;99.90
63966;DHT22;50151;52.030;5.350;2023-07-20T09:00:27;18.90;99.90
63966;DHT22;50151;52.030;5.350;2023-07-20T09:02:56;18.70;99.90
63966;DHT22;50151;52.030;5.350;2023-07-20T09:05:24;18.60;99.90
63966;DHT22;50151;52.030;5.350;2023-07-20T09:07:53;18.50;99.90
63966;DHT22;50151;52.030;5.350;2023-07-20T09:10:23;18.50;99.90
63966;DHT22;50151;52.030;5.350;2023-07-20T09:12:51;18.60;99.90
63966;DHT22;50151;52.030;5.350;2023-07-20T09:15:24;18.80;99.90
63966;DHT22;50151;52.030;5.350;2023-07-20T09:17:51;19.10;99.90
63966;DHT22;50151;52.030;5.350;2023-07-20T09:20:20;19.30;99.90
63966;DHT22;50151;52.030;5.350;2023-07-20T09:22:50;19.30;99.90
63966;DHT22;50151;52.030;5.350;2023-07-20T09:25:19;19.60;99.90
63966;DHT22;50151;52.030;5.350;2023-07-20T09:27:49;19.70;99.90
63966;DHT22;50151;52.030;5.350;2023-07-20T09:30:18;19.60;99.90
63966;DHT22;50151;52.030;5.350;2023-07-20T09:32:47;19.60;99.90
63966;DHT22;50151;52.030;5.350;2023-07-20T09:35:20;19.80;99.90
63966;DHT22;50151;52.030;5.350;2023-07-20T09:37:58;19.90;99.90
63966;DHT22;50151;52.030;5.350;2023-07-20T09:40:30;20.20;99.90
63966;DHT22;50151;52.030;5.350;2023-07-20T09:43:37;20.10;99.90
63966;DHT22;50151;52.030;5.350;2023-07-20T09:46:16;20.10;99.90
63966;DHT22;50151;52.030;5.350;2023-07-20T09:48:53;20.30;99.90
63966;DHT22;50151;52.030;5.350;2023-07-20T09:51:45;20.10;99.90
63966;DHT22;50151;52.030;5.350;2023-07-20T09:54:13;20.30;99.90
63966;DHT22;50151;52.030;5.350;2023-07-20T09:56:42;20.50;99.90
63966;DHT22;50151;52.030;5.350;2023-07-20T09:59:09;20.50;99.90
63966;DHT22;50151;52.030;5.350;2023-07-20T10:01:41;20.60;99.90
63966;DHT22;50151;52.030;5.350;2023-07-20T10:04:11;20.60;99.90
63966;DHT22;50151;52.030;5.350;2023-07-20T10:06:42;20.70;99.90
63966;DHT22;50151;52.030;5.350;2023-07-20T10:09:10;20.70;99.90
63966;DHT22;50151;52.030;5.350;2023-07-20T10:11:43;20.40;99.90
63966;DHT22;50151;52.030;5.350;2023-07-20T10:14:12;20.20;99.90
63966;DHT22;50151;52.030;5.350;2023-07-20T10:16:54;20.00;99.90
63966;DHT22;50151;52.030;5.350;2023-07-20T10:19:27;19.70;99.90
63966;DHT22;50151;52.030;5.350;2023-07-20T10:22:00;20.10;99.90
63966;DHT22;50151;52.030;5.350;2023-07-20T10:24:36;20.40;99.90
63966;DHT22;50151;52.030;5.350;2023-07-20T10:27:04;20.80;99.90
63966;DHT22;50151;52.030;5.350;2023-07-20T10:29:31;20.90;99.90
63966;DHT22;50151;52.030;5.350;2023-07-20T10:32:00;21.10;99.90
63966;DHT22;50151;52.030;5.350;2023-07-20T10:34:28;21.30;99.90
63966;DHT22;50151;52.030;5.350;2023-07-20T10:36:54;21.50;99.90
63966;DHT22;50151;52.030;5.350;2023-07-20T10:39:31;21.20;99.90
63966;DHT22;50151;52.030;5.350;2023-07-20T10:42:09;21.00;99.90
63966;DHT22;50151;52.030;5.350;2023-07-20T10:44:39;20.70;99.90
63966;DHT22;50151;52.030;5.350;2023-07-20T10:47:11;20.70;99.90
63966;DHT22;50151;52.030;5.350;2023-07-20T10:50:01;20.80;99.90
63966;DHT22;50151;52.030;5.350;2023-07-20T10:52:39;20.90;99.90
63966;DHT22;50151;52.030;5.350;2023-07-20T10:55:17;20.90;99.90
63966;DHT22;50151;52.030;5.350;2023-07-20T10:58:11;20.80;99.90
63966;DHT22;50151;52.030;5.350;2023-07-20T11:01:03;20.60;99.90
63966;DHT22;50151;52.030;5.350;2023-07-20T11:03:39;21.40;99.90
63966;DHT22;50151;52.030;5.350;2023-07-20T11:09:04;21.40;99.90
63966;DHT22;50151;52.030;5.350;2023-07-20T11:11:36;21.50;99.90
63966;DHT22;50151;52.030;5.350;2023-07-20T11:14:05;21.80;99.90
63966;DHT22;50151;52.030;5.350;2023-07-20T11:19:01;22.20;99.90
63966;DHT22;50151;52.030;5.350;2023-07-20T11:21:29;22.60;99.90
63966;DHT22;50151;52.030;5.350;2023-07-20T11:23:56;22.90;99.90
63966;DHT22;50151;52.030;5.350;2023-07-20T11:26:24;22.40;99.90
63966;DHT22;50151;52.030;5.350;2023-07-20T11:28:51;22.40;99.90
63966;DHT22;50151;52.030;5.350;2023-07-20T11:31:20;22.50;99.90
63966;DHT22;50151;52.030;5.350;2023-07-20T11:33:47;22.20;99.90
63966;DHT22;50151;52.030;5.350;2023-07-20T11:36:14;22.20;99.90
63966;DHT22;50151;52.030;5.350;2023-07-20T11:38:45;22.00;99.90
63966;DHT22;50151;52.030;5.350;2023-07-20T11:41:13;22.10;99.90
63966;DHT22;50151;52.030;5.350;2023-07-20T11:43:41;22.10;99.90
63966;DHT22;50151;52.030;5.350;2023-07-20T11:46:09;22.60;99.90
63966;DHT22;50151;52.030;5.350;2023-07-20T11:48:35;22.50;99.90
63966;DHT22;50151;52.030;5.350;2023-07-20T11:51:02;22.40;99.90
63966;DHT22;50151;52.030;5.350;2023-07-20T11:53:29;22.20;99.90
63966;DHT22;50151;52.030;5.350;2023-07-20T11:55:56;22.60;99.90
63966;DHT22;50151;52.030;5.350;2023-07-20T11:58:23;22.90;99.90
63966;DHT22;50151;52.030;5.350;2023-07-20T12:00:50;23.10;99.90
63966;DHT22;50151;52.030;5.350;2023-07-20T12:03:18;22.50;99.90
63966;DHT22;50151;52.030;5.350;2023-07-20T12:05:44;22.30;99.90
63966;DHT22;50151;52.030;5.350;2023-07-20T12:08:27;22.40;99.90
63966;DHT22;50151;52.030;5.350;2023-07-20T12:10:54;22.60;99.90
63966;DHT22;50151;52.030;5.350;2023-07-20T12:13:20;23.30;99.90
63966;DHT22;50151;52.030;5.350;2023-07-20T12:15:47;23.30;99.90
63966;DHT22;50151;52.030;5.350;2023-07-20T12:18:14;23.30;99.90
63966;DHT22;50151;52.030;5.350;2023-07-20T12:20:41;23.40;99.90
63966;DHT22;50151;52.030;5.350;2023-07-20T12:23:12;23.10;99.90
63966;DHT22;50151;52.030;5.350;2023-07-20T12:25:41;23.40;99.90
63966;DHT22;50151;52.030;5.350;2023-07-20T12:28:12;23.60;99.90
63966;DHT22;50151;52.030;5.350;2023-07-20T12:30:41;23.80;99.90
63966;DHT22;50151;52.030;5.350;2023-07-20T12:33:09;24.00;99.90
63966;DHT22;50151;52.030;5.350;2023-07-20T12:35:36;23.30;99.90
63966;DHT22;50151;52.030;5.350;2023-07-20T12:38:03;23.10;99.90
63966;DHT22;50151;52.030;5.350;2023-07-20T12:40:31;23.60;99.90
63966;DHT22;50151;52.030;5.350;2023-07-20T12:42:58;24.10;99.90
63966;DHT22;50151;52.030;5.350;2023-07-20T12:45:25;24.40;99.90
63966;DHT22;50151;52.030;5.350;2023-07-20T12:47:52;24.10;99.90
63966;DHT22;50151;52.030;5.350;2023-07-20T12:50:18;23.70;99.90
63966;DHT22;50151;52.030;5.350;2023-07-20T12:52:45;23.60;99.90
63966;DHT22;50151;52.030;5.350;2023-07-20T12:55:12;23.40;99.90
63966;DHT22;50151;52.030;5.350;2023-07-20T12:57:40;23.30;99.90
63966;DHT22;50151;52.030;5.350;2023-07-20T13:00:10;23.50;99.90
63966;DHT22;50151;52.030;5.350;2023-07-20T13:02:38;23.30;99.90
63966;DHT22;50151;52.030;5.350;2023-07-20T13:05:05;23.20;99.90
63966;DHT22;50151;52.030;5.350;2023-07-20T13:07:36;23.10;99.90
63966;DHT22;50151;52.030;5.350;2023-07-20T13:10:08;23.10;99.90
63966;DHT22;50151;52.030;5.350;2023-07-20T13:12:35;23.00;99.90
63966;DHT22;50151;52.030;5.350;2023-07-20T13:15:04;22.80;99.90
63966;DHT22;50151;52.030;5.350;2023-07-20T13:17:38;22.60;99.90
63966;DHT22;50151;52.030;5.350;2023-07-20T13:20:07;22.30;99.90
63966;DHT22;50151;52.030;5.350;2023-07-20T13:22:40;22.40;99.90
63966;DHT22;50151;52.030;5.350;2023-07-20T13:25:07;22.50;99.90
63966;DHT22;50151;52.030;5.350;2023-07-20T13:27:34;22.50;99.90
63966;DHT22;50151;52.030;5.350;2023-07-20T13:30:01;22.40;99.90
63966;DHT22;50151;52.030;5.350;2023-07-20T13:32:33;22.50;99.90
63966;DHT22;50151;52.030;5.350;2023-07-20T13:35:00;22.80;99.90
63966;DHT22;50151;52.030;5.350;2023-07-20T13:37:28;22.70;99.90
63966;DHT22;50151;52.030;5.350;2023-07-20T13:39:56;22.40;99.90
63966;DHT22;50151;52.030;5.350;2023-07-20T13:42:23;22.50;99.90
63966;DHT22;50151;52.030;5.350;2023-07-20T13:44:51;22.60;99.90
63966;DHT22;50151;52.030;5.350;2023-07-20T13:47:18;22.40;99.90
63966;DHT22;50151;52.030;5.350;2023-07-20T13:49:48;23.50;99.90
63966;DHT22;50151;52.030;5.350;2023-07-20T13:52:15;23.60;99.90
63966;DHT22;50151;52.030;5.350;2023-07-20T13:54:45;23.80;99.90
63966;DHT22;50151;52.030;5.350;2023-07-20T13:57:16;23.60;99.90
63966;DHT22;50151;52.030;5.350;2023-07-20T13:59:44;23.30;99.90
63966;DHT22;50151;52.030;5.350;2023-07-20T14:02:11;23.10;99.90
63966;DHT22;50151;52.030;5.350;2023-07-20T14:04:41;23.10;99.90
63966;DHT22;50151;52.030;5.350;2023-07-20T14:07:08;23.00;99.90
63966;DHT22;50151;52.030;5.350;2023-07-20T14:09:35;23.00;99.90
63966;DHT22;50151;52.030;5.350;2023-07-20T14:12:02;22.80;99.90
63966;DHT22;50151;52.030;5.350;2023-07-20T14:14:32;22.70;99.90
63966;DHT22;50151;52.030;5.350;2023-07-20T14:16:59;23.10;99.90
63966;DHT22;50151;52.030;5.350;2023-07-20T14:19:25;23.40;99.90
63966;DHT22;50151;52.030;5.350;2023-07-20T14:21:52;24.50;99.90
63966;DHT22;50151;52.030;5.350;2023-07-20T14:24:19;24.90;99.90
63966;DHT22;50151;52.030;5.350;2023-07-20T14:26:45;24.80;99.90
63966;DHT22;50151;52.030;5.350;2023-07-20T14:29:17;24.20;99.90
63966;DHT22;50151;52.030;5.350;2023-07-20T14:31:45;24.20;99.90
63966;DHT22;50151;52.030;5.350;2023-07-20T14:34:15;24.20;99.90
63966;DHT22;50151;52.030;5.350;2023-07-20T14:36:43;24.20;99.90
63966;DHT22;50151;52.030;5.350;2023-07-20T14:39:10;24.40;99.90
63966;DHT22;50151;52.030;5.350;2023-07-20T14:41:36;24.70;99.90
63966;DHT22;50151;52.030;5.350;2023-07-20T14:44:03;24.60;99.90
63966;DHT22;50151;52.030;5.350;2023-07-20T14:46:31;24.70;99.90
63966;DHT22;50151;52.030;5.350;2023-07-20T14:48:58;24.90;99.90
63966;DHT22;50151;52.030;5.350;2023-07-20T14:51:25;25.40;99.90
63966;DHT22;50151;52.030;5.350;2023-07-20T14:54:01;25.40;99.90
63966;DHT22;50151;52.030;5.350;2023-07-20T14:56:28;24.40;99.90
63966;DHT22;50151;52.030;5.350;2023-07-20T14:58:54;24.40;99.90
63966;DHT22;50151;52.030;5.350;2023-07-20T15:01:21;24.50;99.90
63966;DHT22;50151;52.030;5.350;2023-07-20T15:03:48;24.40;99.90
63966;DHT22;50151;52.030;5.350;2023-07-20T15:06:16;24.50;99.90
63966;DHT22;50151;52.030;5.350;2023-07-20T15:08:43;24.80;99.90
63966;DHT22;50151;52.030;5.350;2023-07-20T15:11:10;25.00;99.90
63966;DHT22;50151;52.030;5.350;2023-07-20T15:13:37;25.30;99.90
63966;DHT22;50151;52.030;5.350;2023-07-20T15:16:03;24.90;99.90
63966;DHT22;50151;52.030;5.350;2023-07-20T15:18:30;24.80;99.90
63966;DHT22;50151;52.030;5.350;2023-07-20T15:21:13;24.70;99.90
63966;DHT22;50151;52.030;5.350;2023-07-20T15:23:40;24.30;99.90
63966;DHT22;50151;52.030;5.350;2023-07-20T15:26:06;24.50;99.90
63966;DHT22;50151;52.030;5.350;2023-07-20T15:28:33;24.40;99.90
63966;DHT22;50151;52.030;5.350;2023-07-20T15:31:02;24.20;99.90
63966;DHT22;50151;52.030;5.350;2023-07-20T15:33:33;24.20;99.90
63966;DHT22;50151;52.030;5.350;2023-07-20T15:36:19;24.00;99.90
63966;DHT22;50151;52.030;5.350;2023-07-20T15:38:56;24.30;99.90
63966;DHT22;50151;52.030;5.350;2023-07-20T15:41:24;23.80;99.90
63966;DHT22;50151;52.030;5.350;2023-07-20T15:43:51;24.00;99.90
63966;DHT22;50151;52.030;5.350;2023-07-20T15:48:46;23.90;99.90
63966;DHT22;50151;52.030;5.350;2023-07-20T15:51:13;23.90;99.90
63966;DHT22;50151;52.030;5.350;2023-07-20T15:53:40;24.00;99.90
63966;DHT22;50151;52.030;5.350;2023-07-20T15:56:07;24.10;99.90
63966;DHT22;50151;52.030;5.350;2023-07-20T15:58:34;23.70;99.90
63966;DHT22;50151;52.030;5.350;2023-07-20T16:01:01;23.60;99.90
63966;DHT22;50151;52.030;5.350;2023-07-20T16:03:28;23.80;99.90
63966;DHT22;50151;52.030;5.350;2023-07-20T16:06:03;23.50;99.90
63966;DHT22;50151;52.030;5.350;2023-07-20T16:08:31;23.30;99.90
63966;DHT22;50151;52.030;5.350;2023-07-20T16:10:58;23.30;99.90
63966;DHT22;50151;52.030;5.350;2023-07-20T16:13:26;23.10;99.90
63966;DHT22;50151;52.030;5.350;2023-07-20T16:15:54;23.00;99.90
63966;DHT22;50151;52.030;5.350;2023-07-20T16:18:23;23.10;99.90
63966;DHT22;50151;52.030;5.350;2023-07-20T16:20:51;23.00;99.90
63966;DHT22;50151;52.030;5.350;2023-07-20T16:23:19;22.90;99.90
63966;DHT22;50151;52.030;5.350;2023-07-20T16:25:46;23.00;99.90
63966;DHT22;50151;52.030;5.350;2023-07-20T16:28:14;22.90;99.90
63966;DHT22;50151;52.030;5.350;2023-07-20T16:30:41;22.90;99.90
63966;DHT22;50151;52.030;5.350;2023-07-20T16:33:08;22.60;99.90
63966;DHT22;50151;52.030;5.350;2023-07-20T16:35:41;22.80;99.90
63966;DHT22;50151;52.030;5.350;2023-07-20T16:38:11;22.70;99.90
63966;DHT22;50151;52.030;5.350;2023-07-20T16:40:40;22.60;99.90
63966;DHT22;50151;52.030;5.350;2023-07-20T16:43:10;22.60;99.90
63966;DHT22;50151;52.030;5.350;2023-07-20T16:45:37;22.60;99.90
63966;DHT22;50151;52.030;5.350;2023-07-20T16:48:04;22.70;99.90
63966;DHT22;50151;52.030;5.350;2023-07-20T16:50:31;22.70;99.90
63966;DHT22;50151;52.030;5.350;2023-07-20T16:52:58;22.70;99.90
63966;DHT22;50151;52.030;5.350;2023-07-20T16:55:25;22.60;99.90
63966;DHT22;50151;52.030;5.350;2023-07-20T16:57:52;22.50;99.90
63966;DHT22;50151;52.030;5.350;2023-07-20T17:00:19;22.40;99.90
63966;DHT22;50151;52.030;5.350;2023-07-20T17:02:46;22.30;99.90
63966;DHT22;50151;52.030;5.350;2023-07-20T17:05:13;22.20;99.90
63966;DHT22;50151;52.030;5.350;2023-07-20T17:07:40;22.10;99.90
63966;DHT22;50151;52.030;5.350;2023-07-20T17:10:10;22.10;99.90
63966;DHT22;50151;52.030;5.350;2023-07-20T17:12:38;22.30;99.90
63966;DHT22;50151;52.030;5.350;2023-07-20T17:15:06;22.30;99.90
63966;DHT22;50151;52.030;5.350;2023-07-20T17:17:34;22.30;99.90
63966;DHT22;50151;52.030;5.350;2023-07-20T17:20:01;22.10;99.90
63966;DHT22;50151;52.030;5.350;2023-07-20T17:22:30;22.00;99.90
63966;DHT22;50151;52.030;5.350;2023-07-20T17:24:57;22.10;99.90
63966;DHT22;50151;52.030;5.350;2023-07-20T17:27:27;21.90;99.90
63966;DHT22;50151;52.030;5.350;2023-07-20T17:29:54;21.90;99.90
63966;DHT22;50151;52.030;5.350;2023-07-20T17:32:23;22.00;99.90
63966;DHT22;50151;52.030;5.350;2023-07-20T17:34:50;21.90;99.90
63966;DHT22;50151;52.030;5.350;2023-07-20T17:37:17;21.80;99.90
63966;DHT22;50151;52.030;5.350;2023-07-20T17:39:49;21.90;99.90
63966;DHT22;50151;52.030;5.350;2023-07-20T17:42:18;21.80;99.90
63966;DHT22;50151;52.030;5.350;2023-07-20T17:44:49;21.80;99.90
63966;DHT22;50151;52.030;5.350;2023-07-20T17:47:15;21.70;99.90
63966;DHT22;50151;52.030;5.350;2023-07-20T17:49:45;21.80;99.90
63966;DHT22;50151;52.030;5.350;2023-07-20T17:52:12;21.70;99.90
63966;DHT22;50151;52.030;5.350;2023-07-20T17:54:39;21.70;99.90
63966;DHT22;50151;52.030;5.350;2023-07-20T17:57:05;21.70;99.90
63966;DHT22;50151;52.030;5.350;2023-07-20T17:59:32;21.70;99.90
63966;DHT22;50151;52.030;5.350;2023-07-20T18:02:21;21.80;99.90
63966;DHT22;50151;52.030;5.350;2023-07-20T18:04:52;21.70;99.90
63966;DHT22;50151;52.030;5.350;2023-07-20T18:07:19;21.70;99.90
63966;DHT22;50151;52.030;5.350;2023-07-20T18:09:45;21.50;99.90
63966;DHT22;50151;52.030;5.350;2023-07-20T18:12:12;21.50;99.90
63966;DHT22;50151;52.030;5.350;2023-07-20T18:14:39;21.60;99.90
63966;DHT22;50151;52.030;5.350;2023-07-20T18:17:05;21.60;99.90
63966;DHT22;50151;52.030;5.350;2023-07-20T18:19:32;21.60;99.90
63966;DHT22;50151;52.030;5.350;2023-07-20T18:21:59;21.60;99.90
63966;DHT22;50151;52.030;5.350;2023-07-20T18:24:26;21.70;99.90
63966;DHT22;50151;52.030;5.350;2023-07-20T18:26:53;21.60;99.90
63966;DHT22;50151;52.030;5.350;2023-07-20T18:29:20;21.70;99.90
63966;DHT22;50151;52.030;5.350;2023-07-20T18:31:46;21.60;99.90
63966;DHT22;50151;52.030;5.350;2023-07-20T18:34:13;21.60;99.90
63966;DHT22;50151;52.030;5.350;2023-07-20T18:36:40;21.60;99.90
63966;DHT22;50151;52.030;5.350;2023-07-20T18:39:07;21.50;99.90
63966;DHT22;50151;52.030;5.350;2023-07-20T18:41:34;21.50;99.90
63966;DHT22;50151;52.030;5.350;2023-07-20T18:44:00;21.50;99.90
63966;DHT22;50151;52.030;5.350;2023-07-20T18:46:27;21.50;99.90
63966;DHT22;50151;52.030;5.350;2023-07-20T18:48:54;21.40;99.90
63966;DHT22;50151;52.030;5.350;2023-07-20T18:51:22;21.40;99.90
63966;DHT22;50151;52.030;5.350;2023-07-20T18:53:49;21.40;99.90
63966;DHT22;50151;52.030;5.350;2023-07-20T18:56:16;21.40;99.90
63966;DHT22;50151;52.030;5.350;2023-07-20T18:58:42;21.40;99.90
63966;DHT22;50151;52.030;5.350;2023-07-20T19:01:09;21.30;99.90
63966;DHT22;50151;52.030;5.350;2023-07-20T19:03:36;21.40;99.90
63966;DHT22;50151;52.030;5.350;2023-07-20T19:06:03;21.40;99.90
63966;DHT22;50151;52.030;5.350;2023-07-20T19:08:31;21.30;99.90
63966;DHT22;50151;52.030;5.350;2023-07-20T19:10:59;21.30;99.90
63966;DHT22;50151;52.030;5.350;2023-07-20T19:13:34;21.20;99.90
63966;DHT22;50151;52.030;5.350;2023-07-20T19:16:01;21.20;99.90
63966;DHT22;50151;52.030;5.350;2023-07-20T19:18:30;21.10;99.90
63966;DHT22;50151;52.030;5.350;2023-07-20T19:21:00;21.00;99.90
63966;DHT22;50151;52.030;5.350;2023-07-20T19:23:29;21.00;99.90
63966;DHT22;50151;52.030;5.350;2023-07-20T19:25:56;21.00;99.90
63966;DHT22;50151;52.030;5.350;2023-07-20T19:28:23;20.90;99.90
63966;DHT22;50151;52.030;5.350;2023-07-20T19:30:50;20.80;99.90
63966;DHT22;50151;52.030;5.350;2023-07-20T19:33:17;20.80;99.90
63966;DHT22;50151;52.030;5.350;2023-07-20T19:35:43;20.60;99.90
63966;DHT22;50151;52.030;5.350;2023-07-20T19:38:11;20.60;99.90
63966;DHT22;50151;52.030;5.350;2023-07-20T19:40:38;20.50;99.90
63966;DHT22;50151;52.030;5.350;2023-07-20T19:43:05;20.50;99.90
63966;DHT22;50151;52.030;5.350;2023-07-20T19:45:35;20.40;99.90
63966;DHT22;50151;52.030;5.350;2023-07-20T19:48:02;20.30;99.90
63966;DHT22;50151;52.030;5.350;2023-07-20T19:50:30;20.20;99.90
63966;DHT22;50151;52.030;5.350;2023-07-20T19:52:57;20.20;99.90
63966;DHT22;50151;52.030;5.350;2023-07-20T19:55:26;20.00;99.90
63966;DHT22;50151;52.030;5.350;2023-07-20T19:57:54;19.90;99.90
63966;DHT22;50151;52.030;5.350;2023-07-20T20:00:21;19.80;99.90
63966;DHT22;50151;52.030;5.350;2023-07-20T20:02:53;19.80;99.90
63966;DHT22;50151;52.030;5.350;2023-07-20T20:05:23;19.70;99.90
63966;DHT22;50151;52.030;5.350;2023-07-20T20:07:52;19.60;99.90
63966;DHT22;50151;52.030;5.350;2023-07-20T20:10:18;19.60;99.90
63966;DHT22;50151;52.030;5.350;2023-07-20T20:12:45;19.50;99.90
63966;DHT22;50151;52.030;5.350;2023-07-20T20:15:12;19.40;99.90
63966;DHT22;50151;52.030;5.350;2023-07-20T20:17:39;19.40;99.90
63966;DHT22;50151;52.030;5.350;2023-07-20T20:20:06;19.30;99.90
63966;DHT22;50151;52.030;5.350;2023-07-20T20:22:33;19.20;99.90
63966;DHT22;50151;52.030;5.350;2023-07-20T20:25:00;19.10;99.90
63966;DHT22;50151;52.030;5.350;2023-07-20T20:27:27;19.10;99.90
63966;DHT22;50151;52.030;5.350;2023-07-20T20:29:54;19.10;99.90
63966;DHT22;50151;52.030;5.350;2023-07-20T20:32:22;19.00;99.90
63966;DHT22;50151;52.030;5.350;2023-07-20T20:34:48;19.00;99.90
63966;DHT22;50151;52.030;5.350;2023-07-20T20:37:15;18.90;99.90
63966;DHT22;50151;52.030;5.350;2023-07-20T20:39:43;19.00;99.90
63966;DHT22;50151;52.030;5.350;2023-07-20T20:42:09;18.90;99.90
63966;DHT22;50151;52.030;5.350;2023-07-20T20:44:37;18.80;99.90
63966;DHT22;50151;52.030;5.350;2023-07-20T20:47:04;18.70;99.90
63966;DHT22;50151;52.030;5.350;2023-07-20T20:49:31;18.60;99.90
63966;DHT22;50151;52.030;5.350;2023-07-20T20:51:58;18.50;99.90
63966;DHT22;50151;52.030;5.350;2023-07-20T20:54:25;18.50;99.90
63966;DHT22;50151;52.030;5.350;2023-07-20T20:56:51;18.50;99.90
63966;DHT22;50151;52.030;5.350;2023-07-20T20:59:18;18.40;99.90
63966;DHT22;50151;52.030;5.350;2023-07-20T21:01:48;18.40;99.90
